Hanks, North Dakota
Current Conditions -  °F | °C
As of 4:52 PM on Tuesday 27 Jan 2015 (Local Time) from KISN Reporting Station
Clear Clear  
Wind Chill: 50°   Ceiling: Unl
Heat Index: 50°   Visibility: 10mi
Dew Point: 37°   Wind: 0mph
Humidity: 61%   Direction: NA
Pressure: 29.79"   Gusts: NA
Location:  48.5906°N, 103.667°W
Report Text: KISN 272252Z AUTO 00000KT 10SM CLR 10/03 A2979 RMK AO2 SLP104 T01000028
Loading
Personal Weather Stations






























Interactive Weather Map New forecast layout! Learn more

10-Day Weather Forecast

Advertisements
Track Severe Weather on mobile